Time;durP1;ratioP1;P1;durP2;ratioP2;P2;SDS_P1;SDS_P2;PMS_P1;PMS_P2;Temp;Humidity;BMP_temperature;BMP_pressure;BME280_temperature;BME280_humidity;BME280_pressure;Samples;Min_cycle;Max_cycle;Signal;HPM_P1;HPM_P2
2022/04/03 00:02:24;;;;;;;14.17;11.33;;;2.90;99.90;;;;;;5059703;28;20608;-60
2022/04/03 00:04:49;;;;;;;11.90;10.70;;;2.90;99.90;;;;;;5060961;28;20710;-59
2022/04/03 00:07:15;;;;;;;13.13;11.20;;;2.30;99.90;;;;;;5052423;28;20185;-59
2022/04/03 00:09:41;;;;;;;13.63;11.73;;;2.40;99.90;;;;;;5065155;28;20755;-60
2022/04/03 00:12:07;;;;;;;13.03;11.03;;;3.10;99.90;;;;;;5064342;28;20466;-59
2022/04/03 00:14:32;;;;;;;13.07;10.90;;;3.10;99.90;;;;;;5060465;28;20268;-59
2022/04/03 00:16:58;;;;;;;12.37;10.67;;;3.10;99.90;;;;;;5066269;28;20646;-60
2022/04/03 00:19:23;;;;;;;11.87;10.57;;;2.90;99.90;;;;;;5064341;28;20299;-60
2022/04/03 00:21:49;;;;;;;12.80;11.50;;;3.00;99.90;;;;;;5062906;28;20682;-61
2022/04/03 00:24:15;;;;;;;14.13;11.70;;;2.80;99.90;;;;;;5058142;28;20185;-60
2022/04/03 00:26:41;;;;;;;13.30;10.40;;;3.00;99.90;;;;;;5059761;28;20182;-60
2022/04/03 00:29:07;;;;;;;12.90;11.60;;;2.50;99.90;;;;;;5067162;28;20184;-61
2022/04/03 00:31:32;;;;;;;14.30;11.73;;;2.10;99.90;;;;;;5065165;28;20185;-61
2022/04/03 00:33:58;;;;;;;13.73;11.63;;;2.70;99.90;;;;;;5065644;28;20173;-61
2022/04/03 00:36:23;;;;;;;13.70;11.90;;;2.70;99.90;;;;;;5052171;28;20202;-61
2022/04/03 00:38:49;;;;;;;18.20;11.30;;;1.90;99.90;;;;;;5060019;28;20189;-61
2022/04/03 00:41:17;;;;;;;15.77;12.93;;;2.60;99.90;;;;;;5058808;28;20228;-60
2022/04/03 00:43:44;;;;;;;14.02;11.48;;;2.50;99.90;;;;;;5061246;28;20699;-61
2022/04/03 00:46:11;;;;;;;14.27;12.77;;;2.80;99.90;;;;;;5055187;28;20555;-60
2022/04/03 00:48:38;;;;;;;14.38;12.23;;;2.50;99.90;;;;;;5062364;28;20326;-60
2022/04/03 00:51:04;;;;;;;14.98;12.50;;;2.40;99.90;;;;;;5055506;28;20213;-59
2022/04/03 00:53:29;;;;;;;12.43;10.63;;;2.80;99.90;;;;;;5061188;28;20278;-60
2022/04/03 00:55:55;;;;;;;14.47;11.47;;;2.70;99.90;;;;;;5062071;28;20277;-60
2022/04/03 00:58:22;;;;;;;14.03;11.90;;;3.00;99.90;;;;;;5063984;28;20606;-60
2022/04/03 01:00:48;;;;;;;12.80;11.00;;;3.00;99.90;;;;;;5061329;28;20240;-61
2022/04/03 01:03:13;;;;;;;14.10;11.77;;;2.60;99.90;;;;;;5062190;28;20278;-60
2022/04/03 01:05:39;;;;;;;13.57;12.17;;;2.40;99.90;;;;;;5054512;28;20182;-61
2022/04/03 01:08:06;;;;;;;12.57;10.87;;;3.10;99.90;;;;;;5065292;28;20300;-60
2022/04/03 01:10:31;;;;;;;14.38;11.73;;;2.40;99.90;;;;;;5064447;28;20200;-60
2022/04/03 01:12:57;;;;;;;13.43;11.67;;;3.00;99.90;;;;;;5065095;28;20201;-60
2022/04/03 01:15:23;;;;;;;13.10;11.70;;;2.70;99.90;;;;;;5052644;28;20185;-60
2022/04/03 01:17:49;;;;;;;13.73;12.00;;;2.70;99.90;;;;;;5062953;28;20201;-60
2022/04/03 01:20:15;;;;;;;15.57;12.20;;;2.80;99.90;;;;;;5057713;28;20903;-60
2022/04/03 01:22:40;;;;;;;13.77;12.32;;;2.70;99.90;;;;;;5058651;28;20229;-60
2022/04/03 01:25:09;;;;;;;13.73;11.47;;;2.70;99.90;;;;;;5049185;28;21002;-60
2022/04/03 01:27:35;;;;;;;14.40;12.60;;;2.80;99.90;;;;;;5064730;28;20431;-60
2022/04/03 01:30:01;;;;;;;15.52;12.43;;;3.20;99.90;;;;;;5042411;28;20681;-60
2022/04/03 01:32:26;;;;;;;14.47;12.40;;;2.70;99.90;;;;;;5059018;28;20212;-60
2022/04/03 01:34:52;;;;;;;17.40;11.57;;;2.40;99.90;;;;;;5055320;28;20201;-60
2022/04/03 01:37:17;;;;;;;13.10;11.67;;;2.80;99.90;;;;;;5060522;28;20209;-60
2022/04/03 01:39:43;;;;;;;15.97;12.30;;;2.70;99.90;;;;;;5059379;28;20262;-60
2022/04/03 01:42:09;;;;;;;16.47;12.77;;;2.40;99.90;;;;;;5063331;28;20205;-60
2022/04/03 01:44:35;;;;;;;16.87;12.87;;;2.30;99.90;;;;;;5057084;28;20178;-60
2022/04/03 01:47:00;;;;;;;16.10;12.83;;;3.10;99.90;;;;;;5055905;28;20452;-59
2022/04/03 01:49:26;;;;;;;13.40;11.83;;;2.70;99.90;;;;;;5056930;28;20439;-60
2022/04/03 01:51:51;;;;;;;15.10;11.47;;;2.60;99.90;;;;;;5055803;28;20261;-59
2022/04/03 01:54:17;;;;;;;12.77;11.37;;;2.90;99.90;;;;;;5058642;28;20196;-59
2022/04/03 01:56:44;;;;;;;14.80;12.10;;;2.90;99.90;;;;;;5048449;28;20189;-60
2022/04/03 01:59:10;;;;;;;13.98;10.82;;;2.20;99.90;;;;;;5056579;28;20246;-59
2022/04/03 02:01:35;;;;;;;12.37;10.50;;;2.60;99.90;;;;;;5060977;28;20181;-59
2022/04/03 02:04:03;;;;;;;12.90;11.10;;;2.70;99.90;;;;;;5063306;28;20225;-60
2022/04/03 02:06:29;;;;;;;13.88;11.23;;;2.80;99.90;;;;;;5061791;28;20287;-59
2022/04/03 02:08:55;;;;;;;13.27;11.38;;;2.80;99.90;;;;;;5064318;28;20221;-59
2022/04/03 02:11:21;;;;;;;12.37;10.57;;;3.00;99.90;;;;;;5062815;28;20220;-59
2022/04/03 02:13:47;;;;;;;13.48;10.48;;;2.40;99.90;;;;;;5061597;28;20202;-59
2022/04/03 02:16:14;;;;;;;13.97;10.80;;;2.80;99.90;;;;;;5051448;28;20653;-59
2022/04/03 02:18:40;;;;;;;12.82;10.05;;;3.00;99.90;;;;;;5058765;28;20177;-59
2022/04/03 02:21:05;;;;;;;12.80;11.20;;;3.00;99.90;;;;;;5059557;28;20688;-59
2022/04/03 02:23:31;;;;;;;14.67;11.57;;;2.50;99.90;;;;;;5063008;28;20196;-59
2022/04/03 02:25:57;;;;;;;13.87;9.90;;;2.20;99.90;;;;;;5055320;28;20182;-60
2022/04/03 02:28:22;;;;;;;12.67;10.73;;;2.80;99.90;;;;;;5061562;28;20642;-59
2022/04/03 02:30:48;;;;;;;14.53;11.30;;;2.70;99.90;;;;;;5064738;28;20189;-59
2022/04/03 02:33:15;;;;;;;13.85;11.00;;;2.90;99.90;;;;;;5061650;28;20210;-60
2022/04/03 02:35:41;;;;;;;11.85;10.43;;;2.60;99.90;;;;;;5056134;28;20176;-59
2022/04/03 02:38:07;;;;;;;14.10;11.83;;;2.60;99.90;;;;;;5065364;28;20188;-59
2022/04/03 02:40:33;;;;;;;13.32;11.07;;;2.60;99.90;;;;;;5062257;28;20241;-59
2022/04/03 02:42:59;;;;;;;13.75;10.32;;;2.40;99.90;;;;;;5056044;28;20694;-60
2022/04/03 02:45:24;;;;;;;13.60;10.97;;;2.50;99.90;;;;;;5056216;28;20323;-59
2022/04/03 02:47:55;;;;;;;13.13;10.80;;;3.00;99.90;;;;;;5047187;28;20709;-60
2022/04/03 02:50:24;;;;;;;13.77;11.85;;;2.70;99.90;;;;;;5053399;28;20174;-59
2022/04/03 02:52:51;;;;;;;14.13;11.85;;;2.10;99.90;;;;;;5064213;28;20201;-60
2022/04/03 02:55:20;;;;;;;13.65;10.48;;;2.60;99.90;;;;;;5052401;28;20194;-60
2022/04/03 02:57:46;;;;;;;13.57;10.52;;;2.60;99.90;;;;;;5058281;28;20215;-60
2022/04/03 03:00:14;;;;;;;15.27;10.87;;;2.80;99.90;;;;;;5057541;28;20216;-59
2022/04/03 03:02:44;;;;;;;14.57;11.93;;;2.80;99.90;;;;;;5058699;28;20467;-60
2022/04/03 03:05:13;;;;;;;13.48;12.05;;;2.20;99.90;;;;;;5055839;28;20213;-59
2022/04/03 03:07:40;;;;;;;12.00;10.60;;;3.20;99.90;;;;;;5061431;28;20685;-59
2022/04/03 03:10:07;;;;;;;12.52;10.40;;;2.50;99.90;;;;;;5063782;28;20562;-59
2022/04/03 03:12:33;;;;;;;14.85;10.52;;;2.70;99.90;;;;;;5052841;28;20205;-59
2022/04/03 03:14:59;;;;;;;11.23;10.10;;;2.60;99.90;;;;;;5054821;28;20204;-60
2022/04/03 03:17:25;;;;;;;12.60;10.17;;;2.90;99.90;;;;;;5060469;28;20180;-59
2022/04/03 03:19:51;;;;;;;14.45;12.30;;;3.10;99.90;;;;;;5058253;28;20483;-59
2022/04/03 03:22:17;;;;;;;12.07;10.77;;;3.10;99.90;;;;;;5038806;28;20568;-59
2022/04/03 03:24:43;;;;;;;14.35;10.32;;;2.80;99.90;;;;;;5058451;28;20432;-60
2022/04/03 03:27:09;;;;;;;14.43;11.27;;;2.80;99.90;;;;;;5056457;28;20181;-59
2022/04/03 03:29:34;;;;;;;11.63;10.40;;;2.80;99.90;;;;;;5056943;28;20205;-60
2022/04/03 03:32:00;;;;;;;12.43;10.00;;;2.50;99.90;;;;;;5056134;28;20224;-59
2022/04/03 03:34:26;;;;;;;11.57;10.17;;;3.00;99.90;;;;;;5054249;28;20221;-59
2022/04/03 03:36:52;;;;;;;13.13;11.70;;;2.90;99.90;;;;;;5055457;28;20282;-60
2022/04/03 03:39:18;;;;;;;14.77;11.85;;;2.60;99.90;;;;;;5059389;28;20455;-60
2022/04/03 03:41:44;;;;;;;15.67;11.57;;;2.60;99.90;;;;;;5043295;28;20169;-60
2022/04/03 03:44:12;;;;;;;14.35;11.07;;;2.70;99.90;;;;;;5052511;28;20231;-60
2022/04/03 03:46:42;;;;;;;12.88;10.48;;;2.70;99.90;;;;;;5055271;28;20212;-60
2022/04/03 03:49:08;;;;;;;13.35;11.20;;;2.60;99.90;;;;;;5057930;28;20181;-60
2022/04/03 03:51:35;;;;;;;13.27;9.77;;;2.00;99.90;;;;;;5057040;28;20617;-59
2022/04/03 03:54:02;;;;;;;13.52;10.98;;;2.60;99.90;;;;;;5057181;28;20272;-59
2022/04/03 03:56:28;;;;;;;15.30;10.80;;;2.70;99.90;;;;;;5052846;28;20181;-59
2022/04/03 03:58:54;;;;;;;12.73;11.30;;;2.70;99.90;;;;;;5056225;28;20247;-60
2022/04/03 04:01:21;;;;;;;11.70;9.67;;;2.60;99.90;;;;;;5043377;28;20566;-59
2022/04/03 04:03:46;;;;;;;14.13;10.77;;;2.90;99.90;;;;;;5056052;28;20452;-61
2022/04/03 04:06:12;;;;;;;12.70;10.40;;;2.70;99.90;;;;;;5054488;28;20181;-59
2022/04/03 04:08:38;;;;;;;12.73;10.60;;;2.70;99.90;;;;;;5061904;28;20193;-59
2022/04/03 04:11:03;;;;;;;12.90;10.33;;;2.90;99.90;;;;;;5068665;28;20435;-60
2022/04/03 04:13:30;;;;;;;12.90;10.33;;;2.10;99.90;;;;;;5066436;28;20240;-59
2022/04/03 04:15:55;;;;;;;13.60;11.65;;;3.00;99.90;;;;;;5056988;28;20177;-59
2022/04/03 04:18:21;;;;;;;11.30;9.63;;;3.00;99.90;;;;;;5062965;28;20668;-60
2022/04/03 04:20:47;;;;;;;13.27;10.97;;;2.70;99.90;;;;;;5057614;28;20728;-60
2022/04/03 04:23:13;;;;;;;13.10;11.20;;;3.00;99.90;;;;;;5066713;28;20205;-59
2022/04/03 04:25:39;;;;;;;14.43;10.25;;;2.80;99.90;;;;;;5055969;28;20563;-59
2022/04/03 04:28:05;;;;;;;11.03;9.57;;;2.50;99.90;;;;;;5065092;28;20216;-60
2022/04/03 04:30:31;;;;;;;11.82;10.63;;;3.00;99.90;;;;;;5058897;28;20220;-60
2022/04/03 04:32:57;;;;;;;13.30;11.50;;;2.90;99.90;;;;;;5058413;28;20233;-59
2022/04/03 04:35:23;;;;;;;12.70;11.40;;;2.80;99.90;;;;;;5057099;28;20439;-59
2022/04/03 04:37:50;;;;;;;12.03;10.30;;;2.70;99.90;;;;;;5058339;28;20186;-59
2022/04/03 04:40:16;;;;;;;14.85;10.85;;;2.30;99.90;;;;;;5063434;28;20220;-59
2022/04/03 04:42:43;;;;;;;13.90;10.63;;;2.60;99.90;;;;;;5057266;28;20683;-59
2022/04/03 04:45:09;;;;;;;13.18;11.15;;;2.70;99.90;;;;;;5056709;28;20885;-60
2022/04/03 04:47:39;;;;;;;12.10;10.25;;;2.80;99.90;;;;;;5065426;28;20230;-60
2022/04/03 04:50:10;;;;;;;13.05;9.85;;;2.90;99.90;;;;;;5058332;28;20193;-59
2022/04/03 04:52:37;;;;;;;12.95;10.38;;;2.70;99.90;;;;;;5059133;28;20205;-59
2022/04/03 04:55:05;;;;;;;13.88;10.65;;;2.90;99.90;;;;;;5063384;28;20194;-59
2022/04/03 04:57:32;;;;;;;11.85;10.60;;;2.80;99.90;;;;;;5062864;28;20197;-60
2022/04/03 04:59:59;;;;;;;14.38;12.02;;;2.90;99.90;;;;;;5062112;28;20225;-59
2022/04/03 05:02:25;;;;;;;13.20;10.70;;;2.70;99.90;;;;;;5057480;28;20659;-59
2022/04/03 05:04:51;;;;;;;13.03;11.10;;;2.80;99.90;;;;;;5056956;28;20225;-59
2022/04/03 05:07:17;;;;;;;14.57;10.70;;;2.30;99.90;;;;;;5061152;28;20643;-60
2022/04/03 05:09:43;;;;;;;16.67;11.57;;;2.60;99.90;;;;;;5062013;28;20275;-59
2022/04/03 05:12:11;;;;;;;12.90;11.00;;;2.60;99.90;;;;;;5059879;28;20232;-60
2022/04/03 05:14:38;;;;;;;13.32;10.02;;;2.60;99.90;;;;;;5060289;28;20181;-60
2022/04/03 05:17:05;;;;;;;15.07;11.90;;;3.20;99.90;;;;;;5064872;28;20208;-59
2022/04/03 05:19:32;;;;;;;13.10;11.30;;;2.90;99.90;;;;;;5060452;28;20799;-60
2022/04/03 05:21:58;;;;;;;12.85;10.00;;;2.90;99.90;;;;;;5057763;28;20200;-60
2022/04/03 05:24:24;;;;;;;13.97;11.37;;;2.30;99.90;;;;;;5060863;28;20189;-59
2022/04/03 05:26:50;;;;;;;14.90;11.70;;;3.40;99.90;;;;;;5053077;28;20436;-59
2022/04/03 05:29:16;;;;;;;11.95;10.02;;;2.80;99.90;;;;;;5064167;28;20205;-59
2022/04/03 05:31:42;;;;;;;13.98;11.32;;;3.10;99.90;;;;;;5052685;28;20190;-59
2022/04/03 05:34:08;;;;;;;13.43;11.52;;;3.00;99.90;;;;;;5057251;28;20236;-60
2022/04/03 05:36:35;;;;;;;12.40;11.10;;;2.90;99.90;;;;;;5051731;28;20257;-59
2022/04/03 05:39:04;;;;;;;12.40;9.82;;;2.80;99.90;;;;;;5058245;28;20876;-60
2022/04/03 05:41:30;;;;;;;12.18;10.70;;;2.70;99.90;;;;;;5049885;28;20212;-59
2022/04/03 05:43:56;;;;;;;12.45;9.82;;;2.80;99.90;;;;;;5064674;28;20181;-60
2022/04/03 05:46:22;;;;;;;11.80;10.00;;;2.90;99.90;;;;;;5054701;28;20679;-59
2022/04/03 05:48:48;;;;;;;10.93;9.77;;;2.40;99.90;;;;;;5062788;28;20527;-59
2022/04/03 05:51:13;;;;;;;14.00;9.90;;;3.20;99.90;;;;;;5055420;28;20476;-59
2022/04/03 05:53:40;;;;;;;15.30;10.90;;;2.30;99.90;;;;;;5056455;28;20472;-60
2022/04/03 05:56:05;;;;;;;10.15;9.10;;;3.00;99.90;;;;;;5059229;28;20194;-59
2022/04/03 05:58:31;;;;;;;10.77;9.00;;;3.10;99.90;;;;;;5062448;28;20231;-60
2022/04/03 06:00:57;;;;;;;10.07;8.47;;;3.20;99.90;;;;;;5042801;28;20208;-59
2022/04/03 06:03:22;;;;;;;9.73;8.73;;;3.10;99.90;;;;;;5061818;28;20534;-60
2022/04/03 06:05:51;;;;;;;9.97;8.30;;;2.70;99.90;;;;;;5056514;28;20647;-59
2022/04/03 06:08:17;;;;;;;8.27;7.47;;;3.40;99.90;;;;;;5059610;28;20189;-60
2022/04/03 06:10:43;;;;;;;8.43;7.53;;;3.30;99.90;;;;;;5061929;28;20220;-59
2022/04/03 06:13:12;;;;;;;8.60;6.80;;;3.70;99.90;;;;;;5059185;28;20197;-59
2022/04/03 06:15:40;;;;;;;9.40;7.43;;;3.30;99.90;;;;;;5058570;28;20444;-59
2022/04/03 06:18:08;;;;;;;8.48;7.38;;;3.40;99.90;;;;;;5058751;28;20177;-60
2022/04/03 06:20:34;;;;;;;7.78;6.80;;;3.30;99.90;;;;;;5056423;28;20201;-60
2022/04/03 06:22:59;;;;;;;9.20;7.13;;;3.10;99.90;;;;;;5059309;28;20193;-60
2022/04/03 06:25:26;;;;;;;8.47;7.57;;;3.10;99.90;;;;;;5056202;28;20185;-60
2022/04/03 06:27:53;;;;;;;9.77;7.05;;;3.40;99.90;;;;;;5060884;28;20173;-59
2022/04/03 06:30:19;;;;;;;7.47;6.75;;;3.40;99.90;;;;;;5054223;28;20189;-59
2022/04/03 06:32:44;;;;;;;8.02;6.70;;;3.50;99.90;;;;;;5058274;28;20213;-60
2022/04/03 06:35:10;;;;;;;7.83;6.63;;;3.50;99.90;;;;;;5054518;28;20714;-59
2022/04/03 06:37:36;;;;;;;6.57;5.97;;;3.60;99.90;;;;;;5061100;28;20189;-59
2022/04/03 06:40:03;;;;;;;6.60;5.90;;;3.60;99.90;;;;;;5056156;28;20517;-60
2022/04/03 06:42:30;;;;;;;7.05;6.20;;;3.90;99.90;;;;;;5059889;28;20681;-62
2022/04/03 06:44:57;;;;;;;8.00;6.63;;;4.00;99.90;;;;;;5051765;28;20174;-62
2022/04/03 06:47:23;;;;;;;8.18;6.32;;;3.90;99.90;;;;;;5055800;28;20597;-62
2022/04/03 06:49:48;;;;;;;6.70;5.80;;;4.10;99.90;;;;;;5055063;28;20182;-62
2022/04/03 06:52:14;;;;;;;6.33;5.80;;;4.00;99.90;;;;;;5049721;28;20205;-62
2022/04/03 06:54:39;;;;;;;9.23;5.93;;;4.00;99.90;;;;;;5056771;28;20660;-62
2022/04/03 06:57:06;;;;;;;6.97;6.27;;;4.10;99.90;;;;;;5055145;28;20183;-62
2022/04/03 06:59:31;;;;;;;6.80;6.10;;;3.80;99.90;;;;;;5051723;28;20282;-62
2022/04/03 07:01:57;;;;;;;8.03;5.87;;;4.10;99.90;;;;;;5037326;28;20372;-62
2022/04/03 07:04:23;;;;;;;6.23;5.63;;;4.10;99.90;;;;;;5052401;28;20182;-62
2022/04/03 07:06:48;;;;;;;6.73;6.03;;;4.10;99.90;;;;;;5053123;28;20189;-62
2022/04/03 07:09:14;;;;;;;6.50;5.90;;;4.80;99.90;;;;;;5057264;28;20189;-62
2022/04/03 07:11:40;;;;;;;6.70;5.80;;;4.80;99.90;;;;;;5053892;28;20177;-62
2022/04/03 07:14:06;;;;;;;6.70;6.10;;;4.90;99.90;;;;;;5048646;28;20238;-62
2022/04/03 07:16:31;;;;;;;7.27;5.60;;;5.00;99.90;;;;;;5053306;28;20174;-62
2022/04/03 07:18:57;;;;;;;5.87;5.30;;;4.80;99.90;;;;;;5054140;28;20180;-62
2022/04/03 07:21:23;;;;;;;5.90;5.40;;;4.90;99.90;;;;;;5057018;28;20226;-62
2022/04/03 07:23:49;;;;;;;6.27;5.67;;;4.70;99.90;;;;;;5052709;28;20609;-62
2022/04/03 07:26:15;;;;;;;7.05;5.97;;;3.80;99.90;;;;;;5063232;28;20798;-62
2022/04/03 07:28:41;;;;;;;7.13;6.40;;;3.70;99.90;;;;;;5055598;28;20178;-62
2022/04/03 07:31:07;;;;;;;7.17;6.30;;;4.50;99.90;;;;;;5053474;28;20439;-62
2022/04/03 07:33:32;;;;;;;6.85;6.15;;;4.70;99.90;;;;;;5061118;28;20197;-63
2022/04/03 07:35:58;;;;;;;6.33;5.70;;;5.00;99.90;;;;;;5036002;28;20217;-63
2022/04/03 07:38:24;;;;;;;6.07;5.47;;;5.20;99.90;;;;;;5053583;28;20643;-63
2022/04/03 07:40:49;;;;;;;12.30;8.80;;;5.40;99.00;;;;;;5060444;28;20234;-63
2022/04/03 07:43:16;;;;;;;6.67;6.07;;;4.90;99.50;;;;;;5049911;28;20469;-63
2022/04/03 07:45:45;;;;;;;6.57;5.88;;;5.00;99.90;;;;;;5064898;28;20182;-62
2022/04/03 07:48:11;;;;;;;6.75;6.05;;;4.70;99.70;;;;;;5042448;28;20378;-63
2022/04/03 07:50:37;;;;;;;6.53;5.90;;;5.60;99.30;;;;;;5058860;28;20250;-62
2022/04/03 07:53:04;;;;;;;5.68;5.18;;;6.10;98.50;;;;;;5045951;28;20554;-62
2022/04/03 07:55:30;;;;;;;6.00;5.40;;;5.60;98.00;;;;;;5052922;28;20211;-62
2022/04/03 07:57:56;;;;;;;6.43;5.82;;;5.70;98.10;;;;;;5064866;28;20672;-62
2022/04/03 08:00:22;;;;;;;5.80;5.30;;;6.10;99.20;;;;;;5062068;28;20208;-62
2022/04/03 08:02:47;;;;;;;6.63;6.03;;;5.60;96.90;;;;;;5043824;28;20975;-61
2022/04/03 08:05:14;;;;;;;7.80;6.13;;;4.90;97.30;;;;;;5051706;28;20190;-62
2022/04/03 08:07:44;;;;;;;7.60;6.63;;;5.40;98.90;;;;;;5056054;28;20192;-62
2022/04/03 08:10:12;;;;;;;7.35;6.20;;;5.20;99.40;;;;;;5063961;28;20667;-62
2022/04/03 08:12:40;;;;;;;7.35;6.03;;;4.90;99.90;;;;;;5043870;28;20206;-61
2022/04/03 08:15:07;;;;;;;7.10;6.20;;;4.50;99.90;;;;;;5055468;28;20174;-62
2022/04/03 08:17:34;;;;;;;6.13;5.53;;;5.30;99.80;;;;;;5054759;28;20179;-61
2022/04/03 08:20:03;;;;;;;5.80;5.20;;;5.10;99.60;;;;;;5056827;28;20627;-62
2022/04/03 08:22:28;;;;;;;7.35;6.15;;;5.00;99.60;;;;;;5052188;28;20970;-63
2022/04/03 08:24:54;;;;;;;6.67;6.07;;;4.80;99.90;;;;;;5057861;28;20195;-62
2022/04/03 08:27:20;;;;;;;6.27;5.67;;;5.20;99.80;;;;;;5060922;28;20202;-62
2022/04/03 08:29:46;;;;;;;7.68;6.88;;;5.20;99.80;;;;;;5052017;28;20187;-62
2022/04/03 08:32:13;;;;;;;7.13;6.32;;;4.40;99.90;;;;;;5066367;28;20210;-62
2022/04/03 08:34:39;;;;;;;5.75;5.25;;;4.80;99.90;;;;;;5050003;28;20196;-61
2022/04/03 08:37:05;;;;;;;6.50;5.47;;;5.60;99.90;;;;;;5055908;28;20191;-63
2022/04/03 08:39:33;;;;;;;6.47;5.73;;;5.70;98.50;;;;;;5050169;28;20638;-62
2022/04/03 08:41:59;;;;;;;9.23;6.93;;;5.60;98.30;;;;;;5061259;28;20564;-62
2022/04/03 08:44:25;;;;;;;6.10;5.43;;;4.90;97.30;;;;;;5064176;28;20274;-62
2022/04/03 08:46:52;;;;;;;5.80;5.20;;;5.00;98.40;;;;;;5058488;28;20443;-61
2022/04/03 08:49:19;;;;;;;6.63;5.93;;;5.80;98.00;;;;;;5057704;28;20186;-62
2022/04/03 08:51:46;;;;;;;6.50;5.90;;;6.00;97.70;;;;;;5060031;28;20555;-61
2022/04/03 08:54:14;;;;;;;5.80;5.30;;;6.60;96.60;;;;;;5054938;28;20185;-60
2022/04/03 08:56:42;;;;;;;5.18;4.78;;;7.10;95.90;;;;;;5061155;28;20208;-60
2022/04/03 08:59:08;;;;;;;6.57;5.93;;;6.60;93.40;;;;;;5065250;28;20523;-60
2022/04/03 09:01:34;;;;;;;6.60;5.35;;;7.50;94.00;;;;;;5051298;28;20200;-60
2022/04/03 09:04:00;;;;;;;5.20;4.73;;;6.90;93.70;;;;;;5063220;28;20186;-61
2022/04/03 09:06:26;;;;;;;5.40;4.90;;;8.10;95.30;;;;;;5054379;28;20493;-62
2022/04/03 09:08:51;;;;;;;5.63;5.13;;;10.20;88.40;;;;;;5057848;28;20261;-60
2022/04/03 09:11:18;;;;;;;5.73;5.20;;;11.80;81.00;;;;;;5069860;28;20185;-60
2022/04/03 09:13:44;;;;;;;5.75;5.25;;;11.20;78.70;;;;;;5057852;28;20243;-62
2022/04/03 09:16:11;;;;;;;3.90;3.60;;;10.80;76.50;;;;;;5060808;28;20183;-64
2022/04/03 09:18:48;;;;;;;5.22;4.72;;;11.10;72.40;;;;;;5054173;28;20239;-60
2022/04/03 09:21:23;;;;;;;4.95;4.55;;;10.50;72.80;;;;;;5057059;28;20201;-63
2022/04/03 09:24:15;;;;;;;5.55;4.90;;;9.60;75.30;;;;;;5055961;28;20201;-62
2022/04/03 09:26:41;;;;;;;5.00;4.60;;;8.30;79.50;;;;;;5047576;28;20201;-63
2022/04/03 09:29:17;;;;;;;5.20;4.43;;;7.80;85.50;;;;;;5054263;28;20173;-63
2022/04/03 09:31:45;;;;;;;4.82;4.43;;;7.00;84.30;;;;;;5059626;28;20177;-62
2022/04/03 09:34:16;;;;;;;7.22;5.30;;;6.50;89.10;;;;;;5042931;28;20177;-61
2022/04/03 09:36:42;;;;;;;6.35;4.60;;;6.60;90.20;;;;;;5052231;28;20190;-62
2022/04/03 09:39:09;;;;;;;6.37;4.97;;;6.80;90.00;;;;;;5062361;28;20178;-62
2022/04/03 09:42:02;;;;;;;13.45;5.13;;;6.80;91.00;;;;;;5056552;28;20496;-65
2022/04/03 09:44:32;;;;;;;6.55;4.40;;;6.70;91.70;;;;;;5055530;28;20192;-64
2022/04/03 09:47:17;;;;;;;5.50;4.95;;;6.20;90.70;;;;;;5054241;28;20339;-65
2022/04/03 09:49:55;;;;;;;4.93;4.53;;;5.90;91.60;;;;;;5034163;28;20284;-64
2022/04/03 09:52:37;;;;;;;7.70;5.25;;;6.10;92.30;;;;;;5061148;28;20226;-63
2022/04/03 09:55:17;;;;;;;5.00;4.60;;;6.40;92.80;;;;;;5054531;28;20227;-63
2022/04/03 09:57:45;;;;;;;7.20;4.80;;;5.70;92.40;;;;;;5064862;28;20662;-64
2022/04/03 10:00:14;;;;;;;5.10;4.60;;;5.40;92.50;;;;;;5057654;28;20215;-64
2022/04/03 10:02:46;;;;;;;7.70;4.57;;;5.70;93.10;;;;;;5035889;28;20223;-65
2022/04/03 10:05:13;;;;;;;4.72;4.32;;;5.80;92.10;;;;;;5056180;28;20180;-66
2022/04/03 10:07:39;;;;;;;6.22;5.03;;;6.30;92.60;;;;;;5063274;28;20283;-69
2022/04/03 10:10:06;;;;;;;5.72;5.22;;;6.20;93.20;;;;;;5057100;28;20195;-62
2022/04/03 10:12:33;;;;;;;5.25;4.57;;;6.20;92.50;;;;;;5061502;28;20665;-67
2022/04/03 10:14:59;;;;;;;4.88;4.45;;;5.40;92.50;;;;;;5053452;28;20215;-66
2022/04/03 10:17:25;;;;;;;5.80;5.30;;;5.40;92.30;;;;;;5054646;28;20179;-62
2022/04/03 10:19:51;;;;;;;5.35;4.82;;;6.20;93.50;;;;;;5048923;28;20687;-62
2022/04/03 10:22:28;;;;;;;8.50;5.30;;;5.80;92.60;;;;;;5050451;28;20620;-61
2022/04/03 10:24:58;;;;;;;4.43;4.03;;;5.60;92.70;;;;;;5039203;28;20180;-61
2022/04/03 10:27:29;;;;;;;4.95;4.53;;;5.30;91.70;;;;;;5057314;28;20178;-61
2022/04/03 10:29:59;;;;;;;5.45;4.95;;;5.30;92.80;;;;;;5055944;28;20181;-60
2022/04/03 10:32:30;;;;;;;6.47;4.88;;;5.60;93.70;;;;;;5053932;28;20313;-61
2022/04/03 10:35:08;;;;;;;5.38;4.88;;;5.40;94.40;;;;;;5038778;28;20192;-61
2022/04/03 10:37:39;;;;;;;3.80;3.50;;;5.30;94.70;;;;;;5051480;28;20653;-61
2022/04/03 10:40:18;;;;;;;4.15;3.70;;;5.50;93.00;;;;;;5055190;28;20525;-61
2022/04/03 10:42:51;;;;;;;5.00;4.32;;;5.50;93.70;;;;;;5056315;28;20202;-60
2022/04/03 10:45:19;;;;;;;8.45;6.20;;;5.60;94.20;;;;;;5057237;28;20250;-60
2022/04/03 10:47:46;;;;;;;6.00;5.40;;;5.00;96.00;;;;;;5052819;28;20201;-61
2022/04/03 10:50:13;;;;;;;4.38;3.97;;;4.90;97.50;;;;;;5052425;28;20185;-61
2022/04/03 10:52:39;;;;;;;6.03;4.50;;;4.90;96.70;;;;;;5049070;28;20748;-60
2022/04/03 10:55:15;;;;;;;4.35;3.95;;;5.70;94.70;;;;;;5060208;28;20191;-60
2022/04/03 10:57:45;;;;;;;4.78;4.07;;;5.50;92.60;;;;;;5056997;28;20185;-60
2022/04/03 11:00:13;;;;;;;5.55;4.10;;;5.50;92.90;;;;;;5053180;28;20209;-60
2022/04/03 11:02:40;;;;;;;4.68;4.28;;;5.50;92.80;;;;;;5050647;28;20204;-60
2022/04/03 11:05:21;;;;;;;5.20;3.90;;;5.90;94.30;;;;;;5049817;28;20266;-60
2022/04/03 11:07:47;;;;;;;3.90;3.50;;;6.30;92.10;;;;;;5052923;28;20198;-61
2022/04/03 11:10:13;;;;;;;3.85;3.42;;;6.40;91.50;;;;;;5062417;28;20194;-61
2022/04/03 11:12:55;;;;;;;4.93;3.50;;;6.60;90.10;;;;;;5056301;28;20212;-61
2022/04/03 11:15:23;;;;;;;3.80;3.50;;;6.30;90.50;;;;;;5050707;28;20953;-61
2022/04/03 11:17:53;;;;;;;4.80;4.32;;;7.10;88.50;;;;;;5052596;28;20269;-61
2022/04/03 11:20:39;;;;;;;4.10;3.80;;;7.50;87.80;;;;;;5054937;28;20566;-61
2022/04/03 11:23:09;;;;;;;3.67;3.38;;;7.80;86.00;;;;;;5044809;28;20252;-61
2022/04/03 11:25:34;;;;;;;3.50;3.20;;;8.40;83.60;;;;;;5036768;28;20624;-62
2022/04/03 11:28:01;;;;;;;3.83;3.53;;;9.10;77.50;;;;;;5060437;28;20178;-62
2022/04/03 11:30:27;;;;;;;3.00;2.80;;;9.90;74.00;;;;;;5061095;28;20205;-61
2022/04/03 11:32:53;;;;;;;3.20;2.93;;;10.40;66.00;;;;;;5057166;28;20216;-61
2022/04/03 11:35:36;;;;;;;4.55;3.40;;;11.40;64.00;;;;;;5054403;28;20613;-61
2022/04/03 11:38:02;;;;;;;3.58;3.28;;;10.50;66.30;;;;;;5048074;28;20198;-61
2022/04/03 11:40:28;;;;;;;4.45;3.55;;;10.00;66.00;;;;;;5047795;28;20198;-61
2022/04/03 11:43:15;;;;;;;3.67;2.97;;;10.10;66.10;;;;;;5055832;28;20193;-61
2022/04/03 11:45:47;;;;;;;4.05;3.35;;;9.60;69.60;;;;;;5058167;28;20193;-62
2022/04/03 11:48:21;;;;;;;3.95;3.05;;;9.20;68.80;;;;;;5058283;28;20640;-62
2022/04/03 11:50:49;;;;;;;5.40;3.10;;;8.90;71.10;;;;;;5052644;28;20288;-62
2022/04/03 11:53:16;;;;;;;3.35;3.05;;;8.30;72.10;;;;;;5061595;28;20205;-62
2022/04/03 11:55:42;;;;;;;4.07;3.17;;;7.70;72.70;;;;;;5057779;28;20189;-62
2022/04/03 11:58:07;;;;;;;5.18;3.40;;;7.50;73.50;;;;;;5043326;28;20188;-61
2022/04/03 12:00:34;;;;;;;4.50;3.60;;;7.40;74.50;;;;;;5049948;28;20783;-61
2022/04/03 12:03:00;;;;;;;3.97;3.58;;;7.40;76.10;;;;;;5058595;28;20777;-61
2022/04/03 12:05:26;;;;;;;3.47;3.00;;;7.20;78.10;;;;;;5058252;28;20185;-62
2022/04/03 12:07:52;;;;;;;3.63;3.20;;;7.20;76.30;;;;;;5055207;28;20197;-61
2022/04/03 12:10:26;;;;;;;3.60;3.30;;;7.30;76.80;;;;;;5055318;28;20439;-61
2022/04/03 12:12:54;;;;;;;3.50;3.20;;;7.10;76.90;;;;;;5062686;28;20247;-61
2022/04/03 12:15:22;;;;;;;4.60;4.20;;;6.70;77.20;;;;;;5053303;28;20271;-61
2022/04/03 12:17:55;;;;;;;4.57;4.18;;;7.00;80.20;;;;;;5056192;28;20182;-62
2022/04/03 12:20:21;;;;;;;5.25;3.20;;;6.20;81.00;;;;;;5058505;28;20254;-61
2022/04/03 12:22:50;;;;;;;3.80;3.27;;;6.70;84.70;;;;;;5053714;28;20586;-61
2022/04/03 12:25:17;;;;;;;3.90;3.22;;;6.70;82.10;;;;;;5059188;28;20177;-62
2022/04/03 12:27:43;;;;;;;3.47;3.17;;;6.50;82.50;;;;;;5054575;28;20213;-62
2022/04/03 12:30:09;;;;;;;4.53;3.60;;;6.70;81.70;;;;;;5065575;28;20213;-62
2022/04/03 12:32:37;;;;;;;3.67;3.38;;;6.80;81.80;;;;;;5056771;28;20474;-59
2022/04/03 12:35:10;;;;;;;7.70;6.20;;;6.70;84.40;;;;;;5060109;28;20188;-62
2022/04/03 12:37:38;;;;;;;3.78;3.45;;;6.90;85.10;;;;;;5056470;28;20662;-62
2022/04/03 12:40:12;;;;;;;3.88;3.53;;;7.10;83.90;;;;;;5062745;28;20214;-61
2022/04/03 12:42:43;;;;;;;4.60;4.03;;;6.90;83.70;;;;;;5062593;28;20249;-61
2022/04/03 12:45:17;;;;;;;4.50;3.80;;;6.60;83.80;;;;;;5059278;28;20204;-61
2022/04/03 12:48:03;;;;;;;4.85;4.13;;;6.70;83.50;;;;;;5058556;28;20188;-61
2022/04/03 12:50:41;;;;;;;3.92;3.53;;;6.50;84.40;;;;;;5052608;28;20193;-61